Flight Track Log - Related Links

Times and Time Zones

All times are in EDT time to prevent confusion due to time zone crossing. See the N612TX flight status page for this flight to view local times or setup timezone preferences in your user account.

Time Position Orientation Groundspeed Altitude Reporting Facility
EDT Latitude Longitude Course Direction KTS MPH feet Rate Location/Type
Mon 03:15:55 PM 36.9847 -87.5008 North 149 171 7,700  Level Indianapolis Center
Mon 03:16:57 PM 37.0303 -87.4994 North 161 185 9,300 1,694 Climbing Indianapolis Center
Mon 03:17:59 PM 37.0839 -87.5006 359° North 166 191 11,200 1,597 Climbing Indianapolis Center
Mon 03:19:01 PM 37.1317 -87.4989 North 170 196 12,600 1,355 Climbing Indianapolis Center
Mon 03:20:00 PM 37.1570 -87.4500 North  Level FlightAware Approximate
Mon 03:20:03 PM 37.1814 -87.4986 360° North 175 201 14,000  Level Indianapolis Center
Mon 03:21:00 PM 37.2183 -87.4500 North  Level FlightAware Approximate
Mon 03:21:05 PM 37.2325 -87.4986 360° North 181 208 15,200  Level Indianapolis Center
Mon 03:22:07 PM 37.2853 -87.4975 North 186 214 16,400 1,065 Climbing Indianapolis Center
Mon 03:23:09 PM 37.3394 -87.4967 North 191 220 17,400 871 Climbing Indianapolis Center
Mon 03:24:11 PM 37.3928 -87.4975 359° North 190 219 18,200 823 Climbing Indianapolis Center
Mon 03:25:13 PM 37.4458 -87.4961 North 188 216 19,100 1,016 Climbing Indianapolis Center
Mon 03:26:15 PM 37.5092 -87.4958 360° North 192 221 20,300 968 Climbing Indianapolis Center
Mon 03:27:17 PM 37.5625 -87.4958 360° North 191 220 21,100 823 Climbing Indianapolis Center
Mon 03:28:19 PM 37.6169 -87.4942 North 193 222 22,000 823 Climbing Indianapolis Center
Mon 03:29:21 PM 37.6703 -87.4964 358° North 190 219 22,800 484 Climbing Indianapolis Center
Mon 03:30:23 PM 37.7267 -87.4933 North 200 230 23,000 97 Climbing Indianapolis Center
Mon 03:31:25 PM 37.7972 -87.4933 360° North 226 260 23,000  Level Indianapolis Center
Mon 03:32:26 PM 37.8633 -87.4933 360° North 236 272 23,000  Level Indianapolis Center
Mon 03:33:28 PM 37.9314 -87.4917 North 241 277 23,000  Level Indianapolis Center
Mon 03:34:30 PM 37.9997 -87.4925 359° North 243 280 23,000  Level Indianapolis Center
Mon 03:35:32 PM 38.0692 -87.4908 North 247 284 23,000  Level Indianapolis Center
Mon 03:36:34 PM 38.1375 -87.4908 360° North 245 282 23,000  Level Indianapolis Center
Mon 03:37:36 PM 38.2069 -87.4908 360° North 246 283 23,000  Level Indianapolis Center
Mon 03:38:38 PM 38.2769 -87.4886 North 248 285 23,000  Level Indianapolis Center
Mon 03:39:40 PM 38.3603 -87.4892 360° North 247 284 23,000  Level Indianapolis Center
Mon 03:40:42 PM 38.4297 -87.4872 North 247 284 23,000  Level Indianapolis Center
Mon 03:41:44 PM 38.5000 -87.4875 360° North 248 285 23,000  Level Indianapolis Center
Mon 03:42:46 PM 38.5694 -87.4869 360° North 248 285 23,000  Level Indianapolis Center
Mon 03:43:48 PM 38.6389 -87.4856 North 248 285 23,000  Level Indianapolis Center
Mon 03:44:50 PM 38.7075 -87.4847 North 244 281 23,000  Level Indianapolis Center
Mon 03:45:52 PM 38.7772 -87.4833 North 248 285 23,000  Level Indianapolis Center
Mon 03:46:54 PM 38.8461 -87.4839 360° North 245 282 23,000  Level Indianapolis Center
Mon 03:47:56 PM 38.9156 -87.4825 North 247 284 23,000  Level Indianapolis Center
Mon 03:48:58 PM 38.9975 -87.4817 360° North 244 281 23,000  Level Indianapolis Center
Mon 03:50:00 PM 39.0664 -87.4803 North 246 283 23,000  Level Indianapolis Center
Mon 03:51:02 PM 39.1264 -87.4797 360° North 244 281 23,000  Level Indianapolis Center
Mon 03:52:04 PM 39.2086 -87.4803 360° North 246 283 23,000  Level Indianapolis Center
Mon 03:53:06 PM 39.2747 -87.4803 360° North 240 276 23,000  Level Indianapolis Center
Mon 03:54:09 PM 39.3419 -87.4794 North 241 277 23,000  Level Indianapolis Center
Mon 03:55:11 PM 39.4081 -87.4778 North 239 275 23,000  Level Indianapolis Center
Mon 03:56:13 PM 39.4750 -87.4781 360° North 240 276 23,000  Level Indianapolis Center
Mon 03:57:15 PM 39.5419 -87.4761 North 240 276 23,000  Level Indianapolis Center
Mon 03:58:17 PM 39.6239 -87.4761 360° North 244 281 23,000  Level Indianapolis Center
Mon 03:59:19 PM 39.6900 -87.4761 360° North 240 276 23,000  Level Indianapolis Center
Mon 04:00:21 PM 39.7567 -87.4744 North 239 275 23,000  Level Indianapolis Center
Mon 04:01:23 PM 39.8228 -87.4747 360° North 238 274 23,000  Level Indianapolis Center
Mon 04:02:25 PM 39.8892 -87.4744 360° North 239 275 23,000  Level Indianapolis Center
Mon 04:03:27 PM 39.9556 -87.4719 North 239 275 23,000  Level Indianapolis Center
Mon 04:04:29 PM 40.0344 -87.4725 360° North 236 272 23,000  Level Indianapolis Center
Mon 04:05:31 PM 40.1017 -87.4717 North 240 276 23,000  Level Indianapolis Center
Mon 04:06:33 PM 40.1686 -87.4711 360° North 241 277 23,000  Level Indianapolis Center
Mon 04:07:35 PM 40.2353 -87.4703 North 239 275 23,000  Level Indianapolis Center
Mon 04:08:37 PM 40.3008 -87.4697 360° North 239 275 23,000  Level Indianapolis Center
Mon 04:09:39 PM 40.3667 -87.4686 North 236 272 23,000  Level Indianapolis Center
Mon 04:10:41 PM 40.4458 -87.4689 360° North 238 274 23,000  Level Indianapolis Center
Mon 04:11:43 PM 40.5128 -87.4686 360° North 241 277 23,000  Level Indianapolis Center
Mon 04:12:45 PM 40.5792 -87.4753 356° North 241 277 23,000  Level Indianapolis Center
Mon 04:13:47 PM 40.6411 -87.5031 341° North 236 272 23,000  Level Indianapolis Center
Mon 04:14:49 PM 40.7047 -87.5275 344° North 237 273 23,000  Level Indianapolis Center
Mon 04:15:51 PM 40.7797 -87.5572 343° North 236 272 23,000  Level Indianapolis Center
Mon 04:16:53 PM 40.8431 -87.5806 344° North 237 273 23,000  Level Indianapolis Center
Mon 04:17:55 PM 40.9050 -87.6047 344° North 234 269 23,000  Level Indianapolis Center
Mon 04:18:57 PM 40.9706 -87.6064 359° North 235 270 23,000  Level Indianapolis Center
Mon 04:20:26 PM 41.0697 -87.6003 North 240 276 23,000  Level Chicago Center
Mon 04:21:28 PM 41.1372 -87.5969 North 241 277 23,000  Level Chicago Center
Mon 04:22:31 PM 41.2036 -87.5933 North 240 276 23,000  Level Chicago Center
Mon 04:23:33 PM 41.2814 -87.5917 North 236 272 23,000  Level Chicago Center
Mon 04:24:35 PM 41.3486 -87.5889 North 238 274 23,000  Level Chicago Center
Mon 04:25:37 PM 41.4147 -87.5853 North 239 275 23,000  Level Chicago Center
Mon 04:26:39 PM 41.4814 -87.5817 North 240 276 23,000  Level Chicago Center
Mon 04:27:41 PM 41.5478 -87.5794 North 239 275 23,000  Level Chicago Center
Mon 04:28:43 PM 41.6283 -87.5758 North 241 277 23,000  Level Chicago Center
Mon 04:29:45 PM 41.6950 -87.5731 North 240 276 23,000  Level Chicago Center
Mon 04:30:47 PM 41.7611 -87.5692 North 238 274 23,000  Level Chicago Center
Mon 04:31:49 PM 41.8258 -87.5642 North 241 277 23,000  Level Chicago Center
Mon 04:32:51 PM 41.9031 -87.5631 North 237 273 23,000  Level Chicago Center
Mon 04:33:54 PM 41.9694 -87.5603 North 239 275 23,000  Level Chicago Center
Mon 04:34:56 PM 42.0361 -87.5561 North 238 274 23,000  Level Chicago Center
Mon 04:35:58 PM 42.1033 -87.5539 North 241 277 23,000  Level Chicago Center
Mon 04:37:00 PM 42.1694 -87.5508 North 238 274 23,000  Level Chicago Center
Mon 04:38:02 PM 42.2475 -87.5489 North 240 276 23,000  Level Chicago Center
Mon 04:39:04 PM 42.3144 -87.5444 North 241 277 23,000  Level Chicago Center
Mon 04:40:06 PM 42.3797 -87.5417 North 236 272 23,000  Level Chicago Center
Mon 04:41:08 PM 42.4456 -87.5394 North 237 273 23,000  Level Chicago Center
Mon 04:42:10 PM 42.5125 -87.5358 North 239 275 23,000  Level Chicago Center
Mon 04:43:12 PM 42.5906 -87.5331 North 241 277 23,000  Level Chicago Center
Mon 04:44:14 PM 42.6553 -87.5294 North 235 270 23,000  Level Chicago Center
Mon 04:45:17 PM 42.7225 -87.5272 North 238 274 23,000  Level Chicago Center
Mon 04:46:19 PM 42.7886 -87.5228 North 239 275 23,000  Level Chicago Center
Mon 04:47:21 PM 42.8542 -87.5203 North 238 274 23,000  Level Chicago Center
Mon 04:48:23 PM 42.9311 -87.5161 North 236 272 23,000  Level Chicago Center
Mon 04:49:25 PM 43.0000 -87.5136 North 243 280 23,000  Level Chicago Center
Mon 04:50:27 PM 43.0675 -87.5094 North 243 280 23,000  Level Chicago Center
Mon 04:51:29 PM 43.1347 -87.5067 North 243 280 23,000  Level Chicago Center
Mon 04:52:32 PM 43.2019 -87.5036 North 243 280 23,000  Level Chicago Center
Mon 04:53:33 PM 43.2800 -87.5003 North 242 278 23,000  Level Chicago Center
Mon 04:54:35 PM 43.3481 -87.4964 North 244 281 23,000  Level Chicago Center
Mon 04:55:37 PM 43.4158 -87.4942 North 246 283 23,000  Level Chicago Center
Mon 04:56:40 PM 43.4828 -87.4903 North 243 280 23,000  Level Chicago Center
Mon 04:57:42 PM 43.5503 -87.4875 North 243 280 23,000  Level Chicago Center
Mon 04:58:44 PM 43.6292 -87.4831 North 245 282 23,000 -242 Level Chicago Center
Mon 04:59:46 PM 43.6981 -87.4800 North 247 284 22,500 -871 Descending Chicago Center
Mon 05:00:48 PM 43.7706 -87.4764 North 259 298 21,200 -1,355 Descending Chicago Center
Mon 05:01:50 PM 43.8456 -87.4728 North 266 306 19,700 -1,404 Descending Chicago Center
Mon 05:02:22 PM 43.8833 -87.4717 North 271 312 19,000 -1,404 Descending Minneapolis Center
Mon 05:03:24 PM 43.9725 -87.4672 North 274 315 17,500 -1,488 Descending Minneapolis Center
Mon 05:04:27 PM 44.0481 -87.4636 North 272 313 15,900 -1,488 Descending Minneapolis Center
Mon 05:05:29 PM 44.1239 -87.4600 North 274 315 14,400 -1,452 Descending Minneapolis Center
Mon 05:06:31 PM 44.1981 -87.4553 North 268 308 12,900 -1,279 Descending Minneapolis Center
Mon 05:07:45 PM 44.2733 -87.4528 North 270 311 11,500 -1,412 Descending Minneapolis Center
Mon 05:08:47 PM 44.3725 -87.4497 North 268 308 9,700 -1,500 Descending Minneapolis Center
Mon 05:09:49 PM 44.4458 -87.4478 North 265 305 8,400 -1,306 Descending Minneapolis Center
Mon 05:10:51 PM 44.5236 -87.4444 North 257 296 7,000 -1,306 Descending Minneapolis Center
Mon 05:11:53 PM 44.5925 -87.4403 North 250 288 5,700 -1,056 Descending Minneapolis Center
Mon 05:12:56 PM 44.6575 -87.4328 North 241 277 4,800 -857 Descending Minneapolis Center
Mon 05:15:00 PM 44.7736 -87.4167 North  Level FlightAware Approximate
Mon 05:22:00 PM 44.8333 -87.4167 North  Level FlightAware Approximate
Mon 05:23:00 PM 44.8437 -87.4215 North  Level Estimated

Login

Don't have an account? Register now (free) for customized features, flight alerts, and more!